sensor_id;sensor_type;location;lat;lon;timestamp;pressure;altitude;pressure_sealevel;temperature;humidity
19783;BME280;10051;40.294;-3.754;2024-01-07T00:01:46;94520.84;;;6.41;70.47
19783;BME280;10051;40.294;-3.754;2024-01-07T00:04:12;94485.81;;;6.15;70.47
19783;BME280;10051;40.294;-3.754;2024-01-07T00:06:37;94498.38;;;6.18;70.66
19783;BME280;10051;40.294;-3.754;2024-01-07T00:09:03;94538.66;;;6.44;71.20
19783;BME280;10051;40.294;-3.754;2024-01-07T00:11:28;94479.44;;;6.05;71.02
19783;BME280;10051;40.294;-3.754;2024-01-07T00:13:54;94525.56;;;6.39;70.49
19783;BME280;10051;40.294;-3.754;2024-01-07T00:16:19;94431.78;;;5.76;70.70
19783;BME280;10051;40.294;-3.754;2024-01-07T00:18:45;94538.00;;;6.32;70.95
19783;BME280;10051;40.294;-3.754;2024-01-07T00:21:11;94535.31;;;6.49;71.41
19783;BME280;10051;40.294;-3.754;2024-01-07T00:23:36;94514.09;;;6.23;71.34
19783;BME280;10051;40.294;-3.754;2024-01-07T00:26:02;94429.75;;;5.61;71.69
19783;BME280;10051;40.294;-3.754;2024-01-07T00:28:28;94424.69;;;5.54;71.89
19783;BME280;10051;40.294;-3.754;2024-01-07T00:30:54;94531.34;;;6.24;72.38
19783;BME280;10051;40.294;-3.754;2024-01-07T00:33:19;94538.84;;;6.37;71.91
19783;BME280;10051;40.294;-3.754;2024-01-07T00:35:45;94421.41;;;5.42;72.15
19783;BME280;10051;40.294;-3.754;2024-01-07T00:38:10;94434.56;;;5.52;72.77
19783;BME280;10051;40.294;-3.754;2024-01-07T00:40:36;94506.47;;;5.99;73.34
19783;BME280;10051;40.294;-3.754;2024-01-07T00:43:03;94541.97;;;6.17;73.37
19783;BME280;10051;40.294;-3.754;2024-01-07T00:45:28;94510.28;;;5.91;73.23
19783;BME280;10051;40.294;-3.754;2024-01-07T00:47:54;94471.31;;;5.68;73.45
19783;BME280;10051;40.294;-3.754;2024-01-07T00:50:20;94481.91;;;5.78;73.04
19783;BME280;10051;40.294;-3.754;2024-01-07T00:52:45;94467.19;;;5.72;72.25
19783;BME280;10051;40.294;-3.754;2024-01-07T00:55:11;94553.53;;;6.21;72.27
19783;BME280;10051;40.294;-3.754;2024-01-07T00:57:37;94431.09;;;5.46;72.34
19783;BME280;10051;40.294;-3.754;2024-01-07T01:00:06;94521.75;;;6.07;72.30
19783;BME280;10051;40.294;-3.754;2024-01-07T01:02:33;94478.19;;;5.74;72.52
19783;BME280;10051;40.294;-3.754;2024-01-07T01:04:59;94502.13;;;6.05;72.40
19783;BME280;10051;40.294;-3.754;2024-01-07T01:07:24;94485.28;;;5.95;72.04
19783;BME280;10051;40.294;-3.754;2024-01-07T01:09:50;94539.72;;;6.26;72.56
19783;BME280;10051;40.294;-3.754;2024-01-07T01:12:15;94510.03;;;6.10;72.07
19783;BME280;10051;40.294;-3.754;2024-01-07T01:14:41;94537.03;;;6.38;71.60
19783;BME280;10051;40.294;-3.754;2024-01-07T01:17:06;94510.72;;;6.22;70.87
19783;BME280;10051;40.294;-3.754;2024-01-07T01:19:32;94474.44;;;6.04;70.64
19783;BME280;10051;40.294;-3.754;2024-01-07T01:21:57;94468.53;;;5.91;71.51
19783;BME280;10051;40.294;-3.754;2024-01-07T01:24:23;94470.78;;;6.05;70.42
19783;BME280;10051;40.294;-3.754;2024-01-07T01:26:48;94528.75;;;6.46;70.05
19783;BME280;10051;40.294;-3.754;2024-01-07T01:29:14;94496.47;;;6.13;70.53
19783;BME280;10051;40.294;-3.754;2024-01-07T01:31:39;94496.56;;;6.18;70.13
19783;BME280;10051;40.294;-3.754;2024-01-07T01:34:05;94529.19;;;6.38;70.59
19783;BME280;10051;40.294;-3.754;2024-01-07T01:36:31;94534.41;;;6.38;70.94
19783;BME280;10051;40.294;-3.754;2024-01-07T01:38:57;94502.63;;;6.24;70.83
19783;BME280;10051;40.294;-3.754;2024-01-07T01:41:22;94472.69;;;6.09;71.23
19783;BME280;10051;40.294;-3.754;2024-01-07T01:43:48;94475.72;;;6.01;71.16
19783;BME280;10051;40.294;-3.754;2024-01-07T01:46:14;94535.13;;;6.33;71.61
19783;BME280;10051;40.294;-3.754;2024-01-07T01:48:41;94458.97;;;5.80;72.14
19783;BME280;10051;40.294;-3.754;2024-01-07T01:51:07;94531.25;;;6.36;72.06
19783;BME280;10051;40.294;-3.754;2024-01-07T01:53:33;94484.53;;;6.17;70.52
19783;BME280;10051;40.294;-3.754;2024-01-07T01:56:01;94510.63;;;6.17;71.66
19783;BME280;10051;40.294;-3.754;2024-01-07T01:58:29;94492.84;;;6.14;71.45
19783;BME280;10051;40.294;-3.754;2024-01-07T02:00:56;94460.63;;;5.86;71.83
19783;BME280;10051;40.294;-3.754;2024-01-07T02:03:22;94443.66;;;5.66;72.52
19783;BME280;10051;40.294;-3.754;2024-01-07T02:05:50;94518.47;;;6.17;72.13
19783;BME280;10051;40.294;-3.754;2024-01-07T02:08:17;94540.41;;;6.38;72.40
19783;BME280;10051;40.294;-3.754;2024-01-07T02:10:43;94519.78;;;6.37;71.93
19783;BME280;10051;40.294;-3.754;2024-01-07T02:13:10;94538.16;;;6.47;71.54
19783;BME280;10051;40.294;-3.754;2024-01-07T02:15:36;94540.00;;;6.47;71.87
19783;BME280;10051;40.294;-3.754;2024-01-07T02:18:01;94454.31;;;5.82;72.45
19783;BME280;10051;40.294;-3.754;2024-01-07T02:20:27;94524.50;;;6.18;72.50
19783;BME280;10051;40.294;-3.754;2024-01-07T02:22:52;94409.47;;;5.46;72.14
19783;BME280;10051;40.294;-3.754;2024-01-07T02:25:18;94492.31;;;5.95;72.62
19783;BME280;10051;40.294;-3.754;2024-01-07T02:27:44;94536.75;;;6.17;72.77
19783;BME280;10051;40.294;-3.754;2024-01-07T02:30:10;94500.88;;;5.90;72.51
19783;BME280;10051;40.294;-3.754;2024-01-07T02:32:36;94475.91;;;6.00;71.11
19783;BME280;10051;40.294;-3.754;2024-01-07T02:35:03;94492.69;;;6.04;71.97
19783;BME280;10051;40.294;-3.754;2024-01-07T02:37:31;94538.00;;;6.32;72.49
19783;BME280;10051;40.294;-3.754;2024-01-07T02:39:57;94516.81;;;6.11;71.87
19783;BME280;10051;40.294;-3.754;2024-01-07T02:42:22;94535.19;;;6.16;71.94
19783;BME280;10051;40.294;-3.754;2024-01-07T02:44:48;94501.66;;;5.91;72.08
19783;BME280;10051;40.294;-3.754;2024-01-07T02:47:14;94507.69;;;5.91;72.16
19783;BME280;10051;40.294;-3.754;2024-01-07T02:49:39;94553.53;;;6.21;72.12
19783;BME280;10051;40.294;-3.754;2024-01-07T02:52:05;94501.66;;;5.91;72.70
19783;BME280;10051;40.294;-3.754;2024-01-07T02:54:30;94501.81;;;6.01;71.31
19783;BME280;10051;40.294;-3.754;2024-01-07T02:56:56;94541.56;;;6.25;71.82
19783;BME280;10051;40.294;-3.754;2024-01-07T02:59:21;94510.50;;;6.07;71.60
19783;BME280;10051;40.294;-3.754;2024-01-07T03:01:47;94470.84;;;5.71;71.18
19783;BME280;10051;40.294;-3.754;2024-01-07T03:04:16;94545.28;;;6.30;70.98
19783;BME280;10051;40.294;-3.754;2024-01-07T03:06:41;94512.09;;;6.08;70.74
19783;BME280;10051;40.294;-3.754;2024-01-07T03:09:07;94491.03;;;5.98;70.93
19783;BME280;10051;40.294;-3.754;2024-01-07T03:11:33;94509.84;;;6.00;71.67
19783;BME280;10051;40.294;-3.754;2024-01-07T03:13:59;94535.78;;;6.23;71.54
19783;BME280;10051;40.294;-3.754;2024-01-07T03:16:26;94533.72;;;6.25;71.87
19783;BME280;10051;40.294;-3.754;2024-01-07T03:18:52;94519.22;;;6.13;71.70
19783;BME280;10051;40.294;-3.754;2024-01-07T03:21:22;94551.47;;;6.23;71.63
19783;BME280;10051;40.294;-3.754;2024-01-07T03:23:49;94440.00;;;5.68;71.51
19783;BME280;10051;40.294;-3.754;2024-01-07T03:26:16;94496.13;;;5.87;72.39
19783;BME280;10051;40.294;-3.754;2024-01-07T03:28:42;94493.13;;;5.95;72.65
19783;BME280;10051;40.294;-3.754;2024-01-07T03:31:15;94442.53;;;5.62;72.63
19783;BME280;10051;40.294;-3.754;2024-01-07T03:33:42;94482.19;;;5.81;73.50
19783;BME280;10051;40.294;-3.754;2024-01-07T03:36:12;94477.31;;;5.85;73.15
19783;BME280;10051;40.294;-3.754;2024-01-07T03:38:39;94537.38;;;6.24;73.12
19783;BME280;10051;40.294;-3.754;2024-01-07T03:41:05;94536.34;;;6.25;73.43
19783;BME280;10051;40.294;-3.754;2024-01-07T03:43:31;94542.03;;;6.22;72.73
19783;BME280;10051;40.294;-3.754;2024-01-07T03:45:56;94442.72;;;5.56;73.18
19783;BME280;10051;40.294;-3.754;2024-01-07T03:48:22;94519.06;;;6.02;73.16
19783;BME280;10051;40.294;-3.754;2024-01-07T03:50:48;94473.28;;;5.60;73.50
19783;BME280;10051;40.294;-3.754;2024-01-07T03:53:15;94532.28;;;5.95;73.33
19783;BME280;10051;40.294;-3.754;2024-01-07T03:55:41;94543.88;;;6.05;73.39
19783;BME280;10051;40.294;-3.754;2024-01-07T03:58:06;94513.28;;;5.83;73.19
19783;BME280;10051;40.294;-3.754;2024-01-07T04:00:32;94476.81;;;5.49;73.14
19783;BME280;10051;40.294;-3.754;2024-01-07T04:02:58;94515.34;;;5.81;73.26
19783;BME280;10051;40.294;-3.754;2024-01-07T04:05:24;94502.16;;;5.71;72.48
19783;BME280;10051;40.294;-3.754;2024-01-07T04:07:49;94544.69;;;5.88;73.47
19783;BME280;10051;40.294;-3.754;2024-01-07T04:10:18;94533.69;;;5.86;73.62
19783;BME280;10051;40.294;-3.754;2024-01-07T04:12:44;94547.38;;;6.10;72.67
19783;BME280;10051;40.294;-3.754;2024-01-07T04:15:11;94544.81;;;5.99;73.01
19783;BME280;10051;40.294;-3.754;2024-01-07T04:17:36;94491.41;;;5.67;72.76
19783;BME280;10051;40.294;-3.754;2024-01-07T04:20:03;94513.22;;;5.78;73.14
19783;BME280;10051;40.294;-3.754;2024-01-07T04:22:28;94458.53;;;5.49;72.85
19783;BME280;10051;40.294;-3.754;2024-01-07T04:24:54;94512.59;;;5.71;73.84
19783;BME280;10051;40.294;-3.754;2024-01-07T04:27:20;94436.59;;;5.28;73.54
19783;BME280;10051;40.294;-3.754;2024-01-07T04:29:45;94510.94;;;5.64;73.79
19783;BME280;10051;40.294;-3.754;2024-01-07T04:32:11;94447.56;;;5.47;72.80
19783;BME280;10051;40.294;-3.754;2024-01-07T04:34:36;94478.44;;;5.55;73.83
19783;BME280;10051;40.294;-3.754;2024-01-07T04:37:02;94544.22;;;5.91;73.87
19783;BME280;10051;40.294;-3.754;2024-01-07T04:39:27;94500.09;;;5.56;74.24
19783;BME280;10051;40.294;-3.754;2024-01-07T04:41:53;94543.81;;;5.83;74.96
19783;BME280;10051;40.294;-3.754;2024-01-07T04:44:19;94525.25;;;5.79;73.88
19783;BME280;10051;40.294;-3.754;2024-01-07T04:46:44;94448.03;;;5.10;74.56
19783;BME280;10051;40.294;-3.754;2024-01-07T04:49:10;94480.66;;;5.29;75.36
19783;BME280;10051;40.294;-3.754;2024-01-07T04:51:36;94496.22;;;5.58;75.10
19783;BME280;10051;40.294;-3.754;2024-01-07T04:54:04;94520.56;;;5.81;74.40
19783;BME280;10051;40.294;-3.754;2024-01-07T04:56:31;94460.28;;;5.26;75.57
19783;BME280;10051;40.294;-3.754;2024-01-07T04:58:57;94491.91;;;5.47;75.50
19783;BME280;10051;40.294;-3.754;2024-01-07T05:01:22;94430.56;;;4.93;76.13
19783;BME280;10051;40.294;-3.754;2024-01-07T05:03:48;94482.72;;;5.44;76.50
19783;BME280;10051;40.294;-3.754;2024-01-07T05:06:14;94480.59;;;5.24;77.03
19783;BME280;10051;40.294;-3.754;2024-01-07T05:08:43;94415.97;;;4.92;76.97
19783;BME280;10051;40.294;-3.754;2024-01-07T05:11:09;94487.28;;;5.37;76.89
19783;BME280;10051;40.294;-3.754;2024-01-07T05:13:37;94521.28;;;5.59;76.80
19783;BME280;10051;40.294;-3.754;2024-01-07T05:16:03;94462.97;;;5.31;77.07
19783;BME280;10051;40.294;-3.754;2024-01-07T05:18:29;94533.00;;;5.74;77.13
19783;BME280;10051;40.294;-3.754;2024-01-07T05:20:54;94517.00;;;5.53;77.34
19783;BME280;10051;40.294;-3.754;2024-01-07T05:23:20;94486.19;;;5.33;76.96
19783;BME280;10051;40.294;-3.754;2024-01-07T05:25:46;94495.53;;;5.46;77.11
19783;BME280;10051;40.294;-3.754;2024-01-07T05:28:12;94489.28;;;5.30;77.38
19783;BME280;10051;40.294;-3.754;2024-01-07T05:30:43;94437.75;;;4.86;77.62
19783;BME280;10051;40.294;-3.754;2024-01-07T05:33:09;94530.59;;;5.55;77.57
19783;BME280;10051;40.294;-3.754;2024-01-07T05:35:35;94546.50;;;5.71;77.16
19783;BME280;10051;40.294;-3.754;2024-01-07T05:38:00;94494.09;;;5.21;77.35
19783;BME280;10051;40.294;-3.754;2024-01-07T05:40:26;94493.44;;;5.14;77.25
19783;BME280;10051;40.294;-3.754;2024-01-07T05:42:51;94507.22;;;5.26;77.21
19783;BME280;10051;40.294;-3.754;2024-01-07T05:45:17;94509.72;;;5.21;76.98
19783;BME280;10051;40.294;-3.754;2024-01-07T05:47:43;94538.59;;;5.31;77.51
19783;BME280;10051;40.294;-3.754;2024-01-07T05:50:08;94535.97;;;5.31;78.44
19783;BME280;10051;40.294;-3.754;2024-01-07T05:52:34;94568.66;;;5.51;78.08
19783;BME280;10051;40.294;-3.754;2024-01-07T05:55:00;94448.81;;;4.64;78.45
19783;BME280;10051;40.294;-3.754;2024-01-07T05:57:26;94571.66;;;5.43;78.91
19783;BME280;10051;40.294;-3.754;2024-01-07T05:59:51;94524.50;;;5.15;78.35
19783;BME280;10051;40.294;-3.754;2024-01-07T06:02:17;94579.22;;;5.44;79.09
19783;BME280;10051;40.294;-3.754;2024-01-07T06:04:43;94518.34;;;5.04;78.91
19783;BME280;10051;40.294;-3.754;2024-01-07T06:07:09;94560.38;;;5.25;78.70
19783;BME280;10051;40.294;-3.754;2024-01-07T06:09:34;94580.66;;;5.52;78.23
19783;BME280;10051;40.294;-3.754;2024-01-07T06:12:00;94454.03;;;4.64;78.21
19783;BME280;10051;40.294;-3.754;2024-01-07T06:14:26;94584.22;;;5.46;78.39
19783;BME280;10051;40.294;-3.754;2024-01-07T06:16:51;94589.56;;;5.39;78.71
19783;BME280;10051;40.294;-3.754;2024-01-07T06:19:17;94582.22;;;5.36;78.69
19783;BME280;10051;40.294;-3.754;2024-01-07T06:21:43;94595.31;;;5.24;79.35
19783;BME280;10051;40.294;-3.754;2024-01-07T06:24:09;94593.88;;;5.16;80.40
19783;BME280;10051;40.294;-3.754;2024-01-07T06:26:35;94587.03;;;4.98;81.07
19783;BME280;10051;40.294;-3.754;2024-01-07T06:29:01;94596.44;;;4.99;80.84
19783;BME280;10051;40.294;-3.754;2024-01-07T06:31:27;94514.66;;;4.19;81.93
19783;BME280;10051;40.294;-3.754;2024-01-07T06:33:52;94548.34;;;4.37;83.23
19783;BME280;10051;40.294;-3.754;2024-01-07T06:36:21;94572.56;;;4.50;83.43
19783;BME280;10051;40.294;-3.754;2024-01-07T06:38:47;94543.81;;;4.21;84.36
19783;BME280;10051;40.294;-3.754;2024-01-07T06:41:12;94538.88;;;4.07;84.51
19783;BME280;10051;40.294;-3.754;2024-01-07T06:43:38;94565.13;;;4.18;85.54
19783;BME280;10051;40.294;-3.754;2024-01-07T06:46:04;94552.91;;;4.06;86.59
19783;BME280;10051;40.294;-3.754;2024-01-07T06:48:30;94559.03;;;4.00;86.71
19783;BME280;10051;40.294;-3.754;2024-01-07T06:50:55;94554.84;;;3.87;87.90
19783;BME280;10051;40.294;-3.754;2024-01-07T06:53:21;94543.31;;;3.83;88.17
19783;BME280;10051;40.294;-3.754;2024-01-07T06:55:47;94522.94;;;3.80;87.16
19783;BME280;10051;40.294;-3.754;2024-01-07T06:58:12;94532.09;;;4.06;85.83
19783;BME280;10051;40.294;-3.754;2024-01-07T07:00:38;94498.06;;;3.84;85.33
19783;BME280;10051;40.294;-3.754;2024-01-07T07:03:04;94553.03;;;4.11;85.40
19783;BME280;10051;40.294;-3.754;2024-01-07T07:05:30;94553.81;;;4.00;86.49
19783;BME280;10051;40.294;-3.754;2024-01-07T07:07:56;94584.81;;;4.25;86.69
19783;BME280;10051;40.294;-3.754;2024-01-07T07:10:22;94586.31;;;4.09;86.67
19783;BME280;10051;40.294;-3.754;2024-01-07T07:12:47;94544.53;;;3.80;86.98
19783;BME280;10051;40.294;-3.754;2024-01-07T07:15:13;94549.75;;;3.92;87.02
19783;BME280;10051;40.294;-3.754;2024-01-07T07:17:39;94551.34;;;4.05;85.82
19783;BME280;10051;40.294;-3.754;2024-01-07T07:20:05;94613.66;;;4.47;85.49
19783;BME280;10051;40.294;-3.754;2024-01-07T07:22:31;94607.53;;;4.54;84.45
19783;BME280;10051;40.294;-3.754;2024-01-07T07:24:57;94499.97;;;3.89;84.21
19783;BME280;10051;40.294;-3.754;2024-01-07T07:27:22;94616.22;;;4.71;85.66
19783;BME280;10051;40.294;-3.754;2024-01-07T07:29:48;94614.16;;;4.73;86.00
19783;BME280;10051;40.294;-3.754;2024-01-07T07:32:13;94587.72;;;4.53;86.60
19783;BME280;10051;40.294;-3.754;2024-01-07T07:34:39;94574.03;;;4.45;86.29
19783;BME280;10051;40.294;-3.754;2024-01-07T07:37:04;94553.22;;;4.34;85.71
19783;BME280;10051;40.294;-3.754;2024-01-07T07:39:30;94558.44;;;4.34;85.49
19783;BME280;10051;40.294;-3.754;2024-01-07T07:41:55;94628.22;;;4.72;86.00
19783;BME280;10051;40.294;-3.754;2024-01-07T07:44:21;94534.34;;;4.14;85.28
19783;BME280;10051;40.294;-3.754;2024-01-07T07:46:46;94536.25;;;4.19;85.97
19783;BME280;10051;40.294;-3.754;2024-01-07T07:49:12;94611.13;;;4.65;86.06
19783;BME280;10051;40.294;-3.754;2024-01-07T07:51:38;94618.38;;;4.74;86.25
19783;BME280;10051;40.294;-3.754;2024-01-07T07:54:04;94613.19;;;4.63;85.94
19783;BME280;10051;40.294;-3.754;2024-01-07T07:56:29;94596.56;;;4.52;86.02
19783;BME280;10051;40.294;-3.754;2024-01-07T07:58:56;94532.41;;;4.10;86.08
19783;BME280;10051;40.294;-3.754;2024-01-07T08:01:22;94585.34;;;4.51;86.56
19783;BME280;10051;40.294;-3.754;2024-01-07T08:03:47;94514.22;;;3.98;86.49
19783;BME280;10051;40.294;-3.754;2024-01-07T08:06:13;94588.53;;;4.41;86.52
19783;BME280;10051;40.294;-3.754;2024-01-07T08:08:39;94551.56;;;4.15;86.73
19783;BME280;10051;40.294;-3.754;2024-01-07T08:11:04;94589.66;;;4.45;86.49
19783;BME280;10051;40.294;-3.754;2024-01-07T08:13:35;94597.91;;;4.54;85.75
19783;BME280;10051;40.294;-3.754;2024-01-07T08:16:01;94622.22;;;4.72;84.93
19783;BME280;10051;40.294;-3.754;2024-01-07T08:18:26;94571.88;;;4.42;84.92
19783;BME280;10051;40.294;-3.754;2024-01-07T08:20:52;94569.97;;;4.38;85.66
19783;BME280;10051;40.294;-3.754;2024-01-07T08:23:18;94611.59;;;4.61;85.51
19783;BME280;10051;40.294;-3.754;2024-01-07T08:25:43;94644.63;;;4.85;85.58
19783;BME280;10051;40.294;-3.754;2024-01-07T08:28:10;94568.59;;;4.35;85.76
19783;BME280;10051;40.294;-3.754;2024-01-07T08:30:36;94593.97;;;4.52;85.78
19783;BME280;10051;40.294;-3.754;2024-01-07T08:33:02;94580.13;;;4.51;85.63
19783;BME280;10051;40.294;-3.754;2024-01-07T08:35:27;94561.94;;;4.39;85.70
19783;BME280;10051;40.294;-3.754;2024-01-07T08:37:53;94488.44;;;3.84;85.52
19783;BME280;10051;40.294;-3.754;2024-01-07T08:40:18;94623.91;;;4.78;84.60
19783;BME280;10051;40.294;-3.754;2024-01-07T08:42:44;94559.09;;;4.29;86.38
19783;BME280;10051;40.294;-3.754;2024-01-07T08:45:16;94651.66;;;4.84;86.52
19783;BME280;10051;40.294;-3.754;2024-01-07T08:47:42;94572.13;;;4.41;86.11
19783;BME280;10051;40.294;-3.754;2024-01-07T08:50:07;94653.19;;;5.09;84.50
19783;BME280;10051;40.294;-3.754;2024-01-07T08:52:33;94653.50;;;5.13;83.39
19783;BME280;10051;40.294;-3.754;2024-01-07T08:55:01;94652.56;;;5.19;82.21
19783;BME280;10051;40.294;-3.754;2024-01-07T08:57:27;94613.31;;;4.97;82.57
19783;BME280;10051;40.294;-3.754;2024-01-07T08:59:53;94621.78;;;4.75;83.63
19783;BME280;10051;40.294;-3.754;2024-01-07T09:02:19;94668.69;;;5.16;82.13
19783;BME280;10051;40.294;-3.754;2024-01-07T09:04:44;94665.84;;;5.17;81.44
19783;BME280;10051;40.294;-3.754;2024-01-07T09:07:10;94607.66;;;5.00;79.43
19783;BME280;10051;40.294;-3.754;2024-01-07T09:09:35;94595.13;;;5.14;78.13
19783;BME280;10051;40.294;-3.754;2024-01-07T09:12:01;94640.34;;;5.48;78.05
19783;BME280;10051;40.294;-3.754;2024-01-07T09:14:29;94560.13;;;5.10;78.31
19783;BME280;10051;40.294;-3.754;2024-01-07T09:16:55;94691.13;;;6.04;78.17
19783;BME280;10051;40.294;-3.754;2024-01-07T09:19:20;94690.75;;;6.12;75.51
19783;BME280;10051;40.294;-3.754;2024-01-07T09:21:46;94698.81;;;6.28;74.62
19783;BME280;10051;40.294;-3.754;2024-01-07T09:24:12;94684.25;;;6.32;73.58
19783;BME280;10051;40.294;-3.754;2024-01-07T09:26:38;94681.38;;;6.50;72.47
19783;BME280;10051;40.294;-3.754;2024-01-07T09:29:06;94693.25;;;6.75;71.34
19783;BME280;10051;40.294;-3.754;2024-01-07T09:31:32;94613.03;;;6.19;69.93
19783;BME280;10051;40.294;-3.754;2024-01-07T09:33:57;94658.56;;;6.63;68.71
19783;BME280;10051;40.294;-3.754;2024-01-07T09:36:23;94660.44;;;6.67;69.00
19783;BME280;10051;40.294;-3.754;2024-01-07T09:38:48;94590.34;;;6.42;67.98
19783;BME280;10051;40.294;-3.754;2024-01-07T09:41:14;94659.16;;;7.09;67.86
19783;BME280;10051;40.294;-3.754;2024-01-07T09:43:40;94592.34;;;6.74;67.27
19783;BME280;10051;40.294;-3.754;2024-01-07T09:46:05;94643.09;;;7.23;65.93
19783;BME280;10051;40.294;-3.754;2024-01-07T09:48:31;94650.50;;;7.09;66.54
19783;BME280;10051;40.294;-3.754;2024-01-07T09:51:00;94688.25;;;7.40;65.76
19783;BME280;10051;40.294;-3.754;2024-01-07T09:53:30;94662.75;;;7.53;65.35
19783;BME280;10051;40.294;-3.754;2024-01-07T09:56:12;94722.16;;;7.80;65.84
19783;BME280;10051;40.294;-3.754;2024-01-07T09:58:42;94726.28;;;7.70;64.44
19783;BME280;10051;40.294;-3.754;2024-01-07T10:01:08;94730.47;;;7.71;64.48
19783;BME280;10051;40.294;-3.754;2024-01-07T10:03:34;94720.00;;;7.71;62.43
19783;BME280;10051;40.294;-3.754;2024-01-07T10:05:59;94685.00;;;7.55;62.39
19783;BME280;10051;40.294;-3.754;2024-01-07T10:08:25;94682.81;;;7.69;62.39
19783;BME280;10051;40.294;-3.754;2024-01-07T10:10:51;94722.53;;;8.21;61.19
19783;BME280;10051;40.294;-3.754;2024-01-07T10:13:16;94724.06;;;8.12;59.38
19783;BME280;10051;40.294;-3.754;2024-01-07T10:15:42;94741.09;;;8.47;59.47
19783;BME280;10051;40.294;-3.754;2024-01-07T10:18:07;94736.56;;;8.70;59.53
19783;BME280;10051;40.294;-3.754;2024-01-07T10:20:34;94623.94;;;8.04;58.97
19783;BME280;10051;40.294;-3.754;2024-01-07T10:23:03;94628.19;;;8.11;57.85
19783;BME280;10051;40.294;-3.754;2024-01-07T10:25:32;94684.09;;;8.59;57.79
19783;BME280;10051;40.294;-3.754;2024-01-07T10:28:00;94679.88;;;8.58;56.51
19783;BME280;10051;40.294;-3.754;2024-01-07T10:30:26;94695.97;;;8.72;56.51
19783;BME280;10051;40.294;-3.754;2024-01-07T10:32:57;94672.09;;;8.74;56.80
19783;BME280;10051;40.294;-3.754;2024-01-07T10:35:35;94611.69;;;8.53;56.59
19783;BME280;10051;40.294;-3.754;2024-01-07T10:38:01;94695.69;;;9.22;56.19
19783;BME280;10051;40.294;-3.754;2024-01-07T10:40:29;94689.69;;;9.32;56.26
19783;BME280;10051;40.294;-3.754;2024-01-07T10:42:55;94635.44;;;8.84;55.85
19783;BME280;10051;40.294;-3.754;2024-01-07T10:45:21;94689.09;;;9.19;56.79
19783;BME280;10051;40.294;-3.754;2024-01-07T10:47:51;94626.78;;;8.84;55.04
19783;BME280;10051;40.294;-3.754;2024-01-07T10:50:20;94688.59;;;9.22;55.42
19783;BME280;10051;40.294;-3.754;2024-01-07T11:07:14;94717.69;;;10.10;54.03
19783;BME280;10051;40.294;-3.754;2024-01-07T11:10:08;94708.78;;;10.37;53.43
19783;BME280;10051;40.294;-3.754;2024-01-07T11:12:35;94683.03;;;10.39;51.23
19783;BME280;10051;40.294;-3.754;2024-01-07T11:15:02;94660.38;;;10.38;51.25
19783;BME280;10051;40.294;-3.754;2024-01-07T11:20:27;94683.53;;;10.67;49.99
19783;BME280;10051;40.294;-3.754;2024-01-07T11:22:52;94643.56;;;10.65;49.26
19783;BME280;10051;40.294;-3.754;2024-01-07T11:25:31;94697.63;;;11.13;48.21
19783;BME280;10051;40.294;-3.754;2024-01-07T11:27:58;94691.81;;;11.21;47.69
19783;BME280;10051;40.294;-3.754;2024-01-07T11:30:24;94658.72;;;10.99;48.23
19783;BME280;10051;40.294;-3.754;2024-01-07T11:32:59;94657.63;;;11.11;45.97
19783;BME280;10051;40.294;-3.754;2024-01-07T11:35:53;94691.16;;;11.55;45.76
19783;BME280;10051;40.294;-3.754;2024-01-07T11:38:19;94642.34;;;11.23;44.10
19783;BME280;10051;40.294;-3.754;2024-01-07T11:40:46;94648.47;;;11.03;43.58
19783;BME280;10051;40.294;-3.754;2024-01-07T11:43:12;94667.44;;;10.95;44.80
19783;BME280;10051;40.294;-3.754;2024-01-07T11:45:37;94675.75;;;11.18;43.75
19783;BME280;10051;40.294;-3.754;2024-01-07T11:48:05;94600.38;;;10.82;45.37
19783;BME280;10051;40.294;-3.754;2024-01-07T11:50:31;94676.97;;;11.46;44.50
19783;BME280;10051;40.294;-3.754;2024-01-07T11:52:56;94645.91;;;11.43;43.31
19783;BME280;10051;40.294;-3.754;2024-01-07T11:55:23;94627.06;;;11.25;41.98
19783;BME280;10051;40.294;-3.754;2024-01-07T11:57:50;94620.66;;;11.37;42.70
19783;BME280;10051;40.294;-3.754;2024-01-07T12:00:17;94595.38;;;11.36;41.56
19783;BME280;10051;40.294;-3.754;2024-01-07T12:02:42;94622.19;;;11.48;42.57
19783;BME280;10051;40.294;-3.754;2024-01-07T12:05:08;94568.31;;;11.30;43.87
19783;BME280;10051;40.294;-3.754;2024-01-07T12:07:34;94605.78;;;11.62;43.54
19783;BME280;10051;40.294;-3.754;2024-01-07T12:10:02;94643.66;;;12.11;43.31
19783;BME280;10051;40.294;-3.754;2024-01-07T12:12:28;94649.03;;;12.30;43.25
19783;BME280;10051;40.294;-3.754;2024-01-07T12:14:55;94617.06;;;12.07;42.82
19783;BME280;10051;40.294;-3.754;2024-01-07T12:17:21;94630.75;;;12.09;43.47
19783;BME280;10051;40.294;-3.754;2024-01-07T12:19:47;94609.22;;;12.02;43.04
19783;BME280;10051;40.294;-3.754;2024-01-07T12:22:13;94618.47;;;12.29;42.52
19783;BME280;10051;40.294;-3.754;2024-01-07T12:24:38;94636.31;;;12.37;42.17
19783;BME280;10051;40.294;-3.754;2024-01-07T12:27:07;94634.75;;;12.36;42.57
19783;BME280;10051;40.294;-3.754;2024-01-07T12:29:33;94603.47;;;12.24;42.52
19783;BME280;10051;40.294;-3.754;2024-01-07T12:31:59;94593.19;;;12.23;41.86
19783;BME280;10051;40.294;-3.754;2024-01-07T12:34:25;94576.88;;;12.20;41.01
19783;BME280;10051;40.294;-3.754;2024-01-07T12:36:51;94618.28;;;12.49;41.77
19783;BME280;10051;40.294;-3.754;2024-01-07T12:39:17;94614.41;;;12.66;42.28
19783;BME280;10051;40.294;-3.754;2024-01-07T12:41:44;94573.94;;;12.52;41.04
19783;BME280;10051;40.294;-3.754;2024-01-07T12:44:09;94551.72;;;12.58;41.54
19783;BME280;10051;40.294;-3.754;2024-01-07T12:46:35;94546.38;;;12.63;45.41
19783;BME280;10051;40.294;-3.754;2024-01-07T12:49:00;94573.28;;;13.08;42.71
19783;BME280;10051;40.294;-3.754;2024-01-07T12:51:26;94551.66;;;13.06;41.74
19783;BME280;10051;40.294;-3.754;2024-01-07T12:53:52;94563.59;;;13.23;41.00
19783;BME280;10051;40.294;-3.754;2024-01-07T12:56:17;94562.38;;;13.34;40.67
19783;BME280;10051;40.294;-3.754;2024-01-07T12:58:43;94550.13;;;13.24;40.35
19783;BME280;10051;40.294;-3.754;2024-01-07T13:01:09;94550.44;;;13.18;41.02
19783;BME280;10051;40.294;-3.754;2024-01-07T13:03:36;94562.03;;;13.41;41.35
19783;BME280;10051;40.294;-3.754;2024-01-07T13:06:01;94577.97;;;13.55;41.02
19783;BME280;10051;40.294;-3.754;2024-01-07T13:08:27;94541.25;;;13.34;41.39
19783;BME280;10051;40.294;-3.754;2024-01-07T13:10:54;94571.53;;;13.61;41.23